Time;durP1;ratioP1;P1;durP2;ratioP2;P2;SDS_P1;SDS_P2;PMS_P1;PMS_P2;Temp;Humidity;BMP_temperature;BMP_pressure;BME280_temperature;BME280_humidity;BME280_pressure;Samples;Min_cycle;Max_cycle;Signal;HPM_P1;HPM_P2
2021/02/27 00:00:44;;;;;;;21.65;15.1;;;;;;;6.65;68.00293;96510.24;;;;
2021/02/27 00:01:44;;;;;;;21.65;15.1;;;;;;;6.65;68.00293;96510.24;;;;
2021/02/27 00:02:45;;;;;;;21.65;15.1;;;;;;;6.65;68.00293;96510.24;;;;
2021/02/27 00:03:46;;;;;;;21.65;15.1;;;;;;;6.65;68.00293;96510.24;;;;
2021/02/27 00:04:47;;;;;;;21.65;15.1;;;;;;;6.65;68.00293;96510.24;;;;
2021/02/27 00:05:49;;;;;;;21.65;15.1;;;;;;;6.65;68.00293;96510.24;;;;
2021/02/27 00:06:50;;;;;;;21.65;15.1;;;;;;;6.65;68.00293;96510.24;;;;
2021/02/27 00:07:51;;;;;;;18.1;13.2;;;;;;;6.58;68.08789;96525.81;;;;
2021/02/27 00:08:53;;;;;;;18.1;13.2;;;;;;;6.58;68.08789;96525.81;;;;
2021/02/27 00:09:54;;;;;;;18.1;13.2;;;;;;;6.58;68.08789;96525.81;;;;
2021/02/27 00:10:54;;;;;;;18.1;13.2;;;;;;;6.58;68.08789;96525.81;;;;
2021/02/27 00:11:55;;;;;;;18.1;13.2;;;;;;;6.58;68.08789;96525.81;;;;
2021/02/27 00:12:56;;;;;;;18.1;13.2;;;;;;;6.58;68.08789;96525.81;;;;
2021/02/27 00:13:56;;;;;;;18.1;13.2;;;;;;;6.58;68.08789;96525.81;;;;
2021/02/27 00:14:57;;;;;;;18.1;13.2;;;;;;;6.58;68.08789;96525.81;;;;
2021/02/27 00:15:57;;;;;;;18.1;13.2;;;;;;;6.58;68.08789;96525.81;;;;
2021/02/27 00:16:57;;;;;;;18.1;13.2;;;;;;;6.58;68.08789;96525.81;;;;
2021/02/27 00:17:58;;;;;;;18.1;13.2;;;;;;;6.58;68.08789;96525.81;;;;
2021/02/27 00:18:59;;;;;;;19.4;13.2;;;;;;;6.43;68.56445;96529.79;;;;
2021/02/27 00:19:59;;;;;;;19.4;13.2;;;;;;;6.43;68.56445;96529.79;;;;
2021/02/27 00:21:00;;;;;;;19.4;13.2;;;;;;;6.43;68.56445;96529.79;;;;
2021/02/27 00:22:00;;;;;;;19.4;13.2;;;;;;;6.43;68.56445;96529.79;;;;
2021/02/27 00:23:01;;;;;;;19.4;13.2;;;;;;;6.43;68.56445;96529.79;;;;
2021/02/27 00:24:03;;;;;;;19.4;13.2;;;;;;;6.43;68.56445;96529.79;;;;
2021/02/27 00:25:05;;;;;;;19.4;13.2;;;;;;;6.43;68.56445;96529.79;;;;
2021/02/27 00:26:08;;;;;;;19.4;13.2;;;;;;;6.43;68.56445;96529.79;;;;
2021/02/27 00:27:08;;;;;;;19.4;13.2;;;;;;;6.43;68.56445;96529.79;;;;
2021/02/27 00:28:09;;;;;;;19.4;13.2;;;;;;;6.43;68.56445;96529.79;;;;
2021/02/27 00:29:09;;;;;;;15.25;11.3;;;;;;;6.3;68.59668;96538.09;;;;
2021/02/27 00:30:10;;;;;;;15.25;11.3;;;;;;;6.3;68.59668;96538.09;;;;
2021/02/27 00:31:12;;;;;;;15.25;11.3;;;;;;;6.3;68.59668;96538.09;;;;
2021/02/27 00:32:12;;;;;;;15.25;11.3;;;;;;;6.3;68.59668;96538.09;;;;
2021/02/27 00:33:13;;;;;;;15.25;11.3;;;;;;;6.3;68.59668;96538.09;;;;
2021/02/27 00:34:13;;;;;;;15.25;11.3;;;;;;;6.3;68.59668;96538.09;;;;
2021/02/27 00:35:14;;;;;;;15.25;11.3;;;;;;;6.3;68.59668;96538.09;;;;
2021/02/27 00:36:15;;;;;;;15.25;11.3;;;;;;;6.3;68.59668;96538.09;;;;
2021/02/27 00:37:15;;;;;;;15.25;11.3;;;;;;;6.3;68.59668;96538.09;;;;
2021/02/27 00:38:16;;;;;;;15.25;11.3;;;;;;;6.3;68.59668;96538.09;;;;
2021/02/27 00:39:17;;;;;;;15.25;11.3;;;;;;;6.3;68.59668;96538.09;;;;
2021/02/27 00:40:17;;;;;;;15.15;11.2;;;;;;;6.07;69.4834;96563.14;;;;
2021/02/27 00:41:21;;;;;;;15.15;11.2;;;;;;;6.07;69.4834;96563.14;;;;
2021/02/27 00:42:21;;;;;;;15.15;11.2;;;;;;;6.07;69.4834;96563.14;;;;
2021/02/27 00:43:22;;;;;;;15.15;11.2;;;;;;;6.07;69.4834;96563.14;;;;
2021/02/27 00:44:23;;;;;;;15.15;11.2;;;;;;;6.07;69.4834;96563.14;;;;
2021/02/27 00:45:23;;;;;;;15.15;11.2;;;;;;;6.07;69.4834;96563.14;;;;
2021/02/27 00:46:24;;;;;;;15.15;11.2;;;;;;;6.07;69.4834;96563.14;;;;
2021/02/27 00:47:25;;;;;;;15.15;11.2;;;;;;;6.07;69.4834;96563.14;;;;
2021/02/27 00:48:25;;;;;;;15.15;11.2;;;;;;;6.07;69.4834;96563.14;;;;
2021/02/27 00:49:26;;;;;;;15.15;11.2;;;;;;;6.07;69.4834;96563.14;;;;
2021/02/27 00:50:26;;;;;;;15.15;11.2;;;;;;;6.07;69.4834;96563.14;;;;
2021/02/27 00:51:29;;;;;;;14.85;10.3;;;;;;;5.84;69.83984;96569.39;;;;
2021/02/27 00:52:30;;;;;;;14.85;10.3;;;;;;;5.84;69.83984;96569.39;;;;
2021/02/27 00:53:30;;;;;;;14.85;10.3;;;;;;;5.84;69.83984;96569.39;;;;
2021/02/27 00:54:31;;;;;;;14.85;10.3;;;;;;;5.84;69.83984;96569.39;;;;
2021/02/27 00:55:31;;;;;;;14.85;10.3;;;;;;;5.84;69.83984;96569.39;;;;
2021/02/27 00:56:32;;;;;;;14.85;10.3;;;;;;;5.84;69.83984;96569.39;;;;
2021/02/27 00:57:32;;;;;;;14.85;10.3;;;;;;;5.84;69.83984;96569.39;;;;
2021/02/27 00:58:34;;;;;;;14.85;10.3;;;;;;;5.84;69.83984;96569.39;;;;
2021/02/27 00:59:34;;;;;;;14.85;10.3;;;;;;;5.84;69.83984;96569.39;;;;
2021/02/27 01:00:35;;;;;;;14.85;10.3;;;;;;;5.84;69.83984;96569.39;;;;
2021/02/27 01:01:35;;;;;;;12.15;9.200001;;;;;;;5.64;70.38867;96579.67;;;;
2021/02/27 01:02:36;;;;;;;12.15;9.200001;;;;;;;5.64;70.38867;96579.67;;;;
2021/02/27 01:03:37;;;;;;;12.15;9.200001;;;;;;;5.64;70.38867;96579.67;;;;
2021/02/27 01:04:37;;;;;;;12.15;9.200001;;;;;;;5.64;70.38867;96579.67;;;;
2021/02/27 01:05:38;;;;;;;12.15;9.200001;;;;;;;5.64;70.38867;96579.67;;;;
2021/02/27 01:06:38;;;;;;;12.15;9.200001;;;;;;;5.64;70.38867;96579.67;;;;
2021/02/27 01:07:39;;;;;;;12.15;9.200001;;;;;;;5.64;70.38867;96579.67;;;;
2021/02/27 01:08:39;;;;;;;12.15;9.200001;;;;;;;5.64;70.38867;96579.67;;;;
2021/02/27 01:09:40;;;;;;;12.15;9.200001;;;;;;;5.64;70.38867;96579.67;;;;
2021/02/27 01:10:40;;;;;;;12.15;9.200001;;;;;;;5.64;70.38867;96579.67;;;;
2021/02/27 01:11:41;;;;;;;12.15;9.200001;;;;;;;5.64;70.38867;96579.67;;;;
2021/02/27 01:12:42;;;;;;;10.7;7.500001;;;;;;;5.48;70.25684;96590.52;;;;
2021/02/27 01:13:42;;;;;;;10.7;7.500001;;;;;;;5.48;70.25684;96590.52;;;;
2021/02/27 01:14:43;;;;;;;10.7;7.500001;;;;;;;5.48;70.25684;96590.52;;;;
2021/02/27 01:15:43;;;;;;;10.7;7.500001;;;;;;;5.48;70.25684;96590.52;;;;
2021/02/27 01:16:44;;;;;;;10.7;7.500001;;;;;;;5.48;70.25684;96590.52;;;;
2021/02/27 01:17:44;;;;;;;10.7;7.500001;;;;;;;5.48;70.25684;96590.52;;;;
2021/02/27 01:18:45;;;;;;;10.7;7.500001;;;;;;;5.48;70.25684;96590.52;;;;
2021/02/27 01:19:45;;;;;;;10.7;7.500001;;;;;;;5.48;70.25684;96590.52;;;;
2021/02/27 01:20:46;;;;;;;10.7;7.500001;;;;;;;5.48;70.25684;96590.52;;;;
2021/02/27 01:21:47;;;;;;;10.7;7.500001;;;;;;;5.48;70.25684;96590.52;;;;
2021/02/27 01:22:47;;;;;;;10.7;6.35;;;;;;;5.22;69.95996;96598.78;;;;
2021/02/27 01:23:48;;;;;;;10.7;6.35;;;;;;;5.22;69.95996;96598.78;;;;
2021/02/27 01:24:48;;;;;;;10.7;6.35;;;;;;;5.22;69.95996;96598.78;;;;
2021/02/27 01:25:49;;;;;;;10.7;6.35;;;;;;;5.22;69.95996;96598.78;;;;
2021/02/27 01:26:49;;;;;;;10.7;6.35;;;;;;;5.22;69.95996;96598.78;;;;
2021/02/27 01:27:50;;;;;;;10.7;6.35;;;;;;;5.22;69.95996;96598.78;;;;
2021/02/27 01:28:50;;;;;;;10.7;6.35;;;;;;;5.22;69.95996;96598.78;;;;
2021/02/27 01:29:51;;;;;;;10.7;6.35;;;;;;;5.22;69.95996;96598.78;;;;
2021/02/27 01:30:51;;;;;;;10.7;6.35;;;;;;;5.22;69.95996;96598.78;;;;
2021/02/27 01:31:52;;;;;;;10.7;6.35;;;;;;;5.22;69.95996;96598.78;;;;
2021/02/27 01:32:53;;;;;;;10.7;6.35;;;;;;;5.22;69.95996;96598.78;;;;
2021/02/27 01:33:54;;;;;;;8.999999;5.8;;;;;;;4.97;70.19434;96601.59;;;;
2021/02/27 01:34:54;;;;;;;8.999999;5.8;;;;;;;4.97;70.19434;96601.59;;;;
2021/02/27 01:35:55;;;;;;;8.999999;5.8;;;;;;;4.97;70.19434;96601.59;;;;
2021/02/27 01:36:55;;;;;;;8.999999;5.8;;;;;;;4.97;70.19434;96601.59;;;;
2021/02/27 01:37:56;;;;;;;8.999999;5.8;;;;;;;4.97;70.19434;96601.59;;;;
2021/02/27 01:38:57;;;;;;;8.999999;5.8;;;;;;;4.97;70.19434;96601.59;;;;
2021/02/27 01:39:57;;;;;;;8.999999;5.8;;;;;;;4.97;70.19434;96601.59;;;;
2021/02/27 01:40:58;;;;;;;8.999999;5.8;;;;;;;4.97;70.19434;96601.59;;;;
2021/02/27 01:41:58;;;;;;;8.999999;5.8;;;;;;;4.97;70.19434;96601.59;;;;
2021/02/27 01:42:59;;;;;;;8.999999;5.8;;;;;;;4.97;70.19434;96601.59;;;;
2021/02/27 01:44:00;;;;;;;7;5.25;;;;;;;4.8;70.06152;96604.89;;;;
2021/02/27 01:45:00;;;;;;;7;5.25;;;;;;;4.8;70.06152;96604.89;;;;
2021/02/27 01:46:01;;;;;;;7;5.25;;;;;;;4.8;70.06152;96604.89;;;;
2021/02/27 01:47:02;;;;;;;7;5.25;;;;;;;4.8;70.06152;96604.89;;;;
2021/02/27 01:48:02;;;;;;;7;5.25;;;;;;;4.8;70.06152;96604.89;;;;
2021/02/27 01:49:03;;;;;;;7;5.25;;;;;;;4.8;70.06152;96604.89;;;;
2021/02/27 01:50:04;;;;;;;7;5.25;;;;;;;4.8;70.06152;96604.89;;;;
2021/02/27 01:51:07;;;;;;;7;5.25;;;;;;;4.8;70.06152;96604.89;;;;
2021/02/27 01:52:10;;;;;;;7;5.25;;;;;;;4.8;70.06152;96604.89;;;;
2021/02/27 01:53:11;;;;;;;7;5.25;;;;;;;4.8;70.06152;96604.89;;;;
2021/02/27 01:54:11;;;;;;;7;5.25;;;;;;;4.8;70.06152;96604.89;;;;
2021/02/27 01:55:12;;;;;;;11.7;5.7;;;;;;;4.64;70.2041;96610.66;;;;
2021/02/27 01:56:15;;;;;;;11.7;5.7;;;;;;;4.64;70.2041;96610.66;;;;
2021/02/27 01:57:17;;;;;;;11.7;5.7;;;;;;;4.64;70.2041;96610.66;;;;
2021/02/27 01:58:18;;;;;;;11.7;5.7;;;;;;;4.64;70.2041;96610.66;;;;
2021/02/27 01:59:18;;;;;;;11.7;5.7;;;;;;;4.64;70.2041;96610.66;;;;
2021/02/27 02:00:19;;;;;;;11.7;5.7;;;;;;;4.64;70.2041;96610.66;;;;
2021/02/27 02:01:20;;;;;;;11.7;5.7;;;;;;;4.64;70.2041;96610.66;;;;
2021/02/27 02:02:21;;;;;;;11.7;5.7;;;;;;;4.64;70.2041;96610.66;;;;
2021/02/27 02:03:22;;;;;;;11.7;5.7;;;;;;;4.64;70.2041;96610.66;;;;
2021/02/27 02:04:25;;;;;;;11.7;5.7;;;;;;;4.64;70.2041;96610.66;;;;
2021/02/27 02:05:25;;;;;;;8.449999;5.25;;;;;;;4.51;70.34277;96609.83;;;;
2021/02/27 02:06:26;;;;;;;8.449999;5.25;;;;;;;4.51;70.34277;96609.83;;;;
2021/02/27 02:07:27;;;;;;;8.449999;5.25;;;;;;;4.51;70.34277;96609.83;;;;
2021/02/27 02:08:27;;;;;;;8.449999;5.25;;;;;;;4.51;70.34277;96609.83;;;;
2021/02/27 02:09:28;;;;;;;8.449999;5.25;;;;;;;4.51;70.34277;96609.83;;;;
2021/02/27 02:10:29;;;;;;;8.449999;5.25;;;;;;;4.51;70.34277;96609.83;;;;
2021/02/27 02:11:29;;;;;;;8.449999;5.25;;;;;;;4.51;70.34277;96609.83;;;;
2021/02/27 02:12:30;;;;;;;8.449999;5.25;;;;;;;4.51;70.34277;96609.83;;;;
2021/02/27 02:13:30;;;;;;;8.449999;5.25;;;;;;;4.51;70.34277;96609.83;;;;
2021/02/27 02:14:31;;;;;;;8.449999;5.25;;;;;;;4.51;70.34277;96609.83;;;;
2021/02/27 02:15:32;;;;;;;8.449999;5.25;;;;;;;4.51;70.34277;96609.83;;;;
2021/02/27 02:16:32;;;;;;;10.25;5.950001;;;;;;;4.44;70.17188;96619.48;;;;
2021/02/27 02:17:33;;;;;;;10.25;5.950001;;;;;;;4.44;70.17188;96619.48;;;;
2021/02/27 02:18:33;;;;;;;10.25;5.950001;;;;;;;4.44;70.17188;96619.48;;;;
2021/02/27 02:19:34;;;;;;;10.25;5.950001;;;;;;;4.44;70.17188;96619.48;;;;
2021/02/27 02:20:37;;;;;;;10.25;5.950001;;;;;;;4.44;70.17188;96619.48;;;;
2021/02/27 02:21:38;;;;;;;10.25;5.950001;;;;;;;4.44;70.17188;96619.48;;;;
2021/02/27 02:22:45;;;;;;;10.25;5.950001;;;;;;;4.44;70.17188;96619.48;;;;
2021/02/27 02:23:56;;;;;;;10.25;5.950001;;;;;;;4.44;70.17188;96619.48;;;;
2021/02/27 02:24:57;;;;;;;10.25;5.950001;;;;;;;4.44;70.17188;96619.48;;;;
2021/02/27 02:25:57;;;;;;;10.25;5.950001;;;;;;;4.44;70.17188;96619.48;;;;
2021/02/27 02:27:00;;;;;;;9.650001;5.699999;;;;;;;4.39;70.40625;96616.58;;;;
2021/02/27 02:28:01;;;;;;;9.650001;5.699999;;;;;;;4.39;70.40625;96616.58;;;;
2021/02/27 02:29:03;;;;;;;9.650001;5.699999;;;;;;;4.39;70.40625;96616.58;;;;
2021/02/27 02:30:04;;;;;;;9.650001;5.699999;;;;;;;4.39;70.40625;96616.58;;;;
2021/02/27 02:31:11;;;;;;;9.650001;5.699999;;;;;;;4.39;70.40625;96616.58;;;;
2021/02/27 02:32:20;;;;;;;9.650001;5.699999;;;;;;;4.39;70.40625;96616.58;;;;
2021/02/27 02:33:21;;;;;;;9.650001;5.699999;;;;;;;4.39;70.40625;96616.58;;;;
2021/02/27 02:34:21;;;;;;;9.650001;5.699999;;;;;;;4.39;70.40625;96616.58;;;;
2021/02/27 02:35:22;;;;;;;9.650001;5.699999;;;;;;;4.39;70.40625;96616.58;;;;
2021/02/27 02:36:23;;;;;;;9.650001;5.699999;;;;;;;4.39;70.40625;96616.58;;;;
2021/02/27 02:37:23;;;;;;;10.1;6.25;;;;;;;4.34;70.48242;96606.36;;;;
2021/02/27 02:38:24;;;;;;;10.1;6.25;;;;;;;4.34;70.48242;96606.36;;;;
2021/02/27 02:39:25;;;;;;;10.1;6.25;;;;;;;4.34;70.48242;96606.36;;;;
2021/02/27 02:40:26;;;;;;;10.1;6.25;;;;;;;4.34;70.48242;96606.36;;;;
2021/02/27 02:41:27;;;;;;;10.1;6.25;;;;;;;4.34;70.48242;96606.36;;;;
2021/02/27 02:42:27;;;;;;;10.1;6.25;;;;;;;4.34;70.48242;96606.36;;;;
2021/02/27 02:43:28;;;;;;;10.1;6.25;;;;;;;4.34;70.48242;96606.36;;;;
2021/02/27 02:44:28;;;;;;;10.1;6.25;;;;;;;4.34;70.48242;96606.36;;;;
2021/02/27 02:45:29;;;;;;;10.1;6.25;;;;;;;4.34;70.48242;96606.36;;;;
2021/02/27 02:46:30;;;;;;;10.1;6.25;;;;;;;4.34;70.48242;96606.36;;;;
2021/02/27 02:47:31;;;;;;;10.1;6.25;;;;;;;4.34;70.48242;96606.36;;;;
2021/02/27 02:48:32;;;;;;;11.4;6.05;;;;;;;4.32;70.2998;96602.09;;;;
2021/02/27 02:49:32;;;;;;;11.4;6.05;;;;;;;4.32;70.2998;96602.09;;;;
2021/02/27 02:50:33;;;;;;;11.4;6.05;;;;;;;4.32;70.2998;96602.09;;;;
2021/02/27 02:51:38;;;;;;;11.4;6.05;;;;;;;4.32;70.2998;96602.09;;;;
2021/02/27 02:52:38;;;;;;;11.4;6.05;;;;;;;4.32;70.2998;96602.09;;;;
2021/02/27 02:53:40;;;;;;;11.4;6.05;;;;;;;4.32;70.2998;96602.09;;;;
2021/02/27 02:54:40;;;;;;;11.4;6.05;;;;;;;4.32;70.2998;96602.09;;;;
2021/02/27 02:55:41;;;;;;;11.4;6.05;;;;;;;4.32;70.2998;96602.09;;;;
2021/02/27 02:56:42;;;;;;;11.4;6.05;;;;;;;4.32;70.2998;96602.09;;;;
2021/02/27 02:57:44;;;;;;;11.4;6.05;;;;;;;4.32;70.2998;96602.09;;;;
2021/02/27 02:58:45;;;;;;;12;6.649999;;;;;;;4.41;69.94531;96611.8;;;;
2021/02/27 02:59:45;;;;;;;12;6.649999;;;;;;;4.41;69.94531;96611.8;;;;
2021/02/27 03:00:46;;;;;;;12;6.649999;;;;;;;4.41;69.94531;96611.8;;;;
2021/02/27 03:01:46;;;;;;;12;6.649999;;;;;;;4.41;69.94531;96611.8;;;;
2021/02/27 03:02:47;;;;;;;12;6.649999;;;;;;;4.41;69.94531;96611.8;;;;
2021/02/27 03:03:48;;;;;;;12;6.649999;;;;;;;4.41;69.94531;96611.8;;;;
2021/02/27 03:04:50;;;;;;;12;6.649999;;;;;;;4.41;69.94531;96611.8;;;;
2021/02/27 03:05:50;;;;;;;12;6.649999;;;;;;;4.41;69.94531;96611.8;;;;
2021/02/27 03:06:51;;;;;;;12;6.649999;;;;;;;4.41;69.94531;96611.8;;;;
2021/02/27 03:07:51;;;;;;;12;6.649999;;;;;;;4.41;69.94531;96611.8;;;;
2021/02/27 03:08:52;;;;;;;12;6.649999;;;;;;;4.41;69.94531;96611.8;;;;
2021/02/27 03:09:52;;;;;;;13.75;7.7;;;;;;;4.4;69.72266;96622.17;;;;
2021/02/27 03:10:53;;;;;;;13.75;7.7;;;;;;;4.4;69.72266;96622.17;;;;
2021/02/27 03:11:53;;;;;;;13.75;7.7;;;;;;;4.4;69.72266;96622.17;;;;
2021/02/27 03:12:54;;;;;;;13.75;7.7;;;;;;;4.4;69.72266;96622.17;;;;
2021/02/27 03:13:54;;;;;;;13.75;7.7;;;;;;;4.4;69.72266;96622.17;;;;
2021/02/27 03:14:55;;;;;;;13.75;7.7;;;;;;;4.4;69.72266;96622.17;;;;
2021/02/27 03:15:55;;;;;;;13.75;7.7;;;;;;;4.4;69.72266;96622.17;;;;
2021/02/27 03:16:56;;;;;;;13.75;7.7;;;;;;;4.4;69.72266;96622.17;;;;
2021/02/27 03:17:56;;;;;;;13.75;7.7;;;;;;;4.4;69.72266;96622.17;;;;
2021/02/27 03:18:57;;;;;;;13.75;7.7;;;;;;;4.4;69.72266;96622.17;;;;
2021/02/27 03:19:58;;;;;;;15.45;8.5;;;;;;;4.39;69.79297;96615.66;;;;
2021/02/27 03:20:58;;;;;;;15.45;8.5;;;;;;;4.39;69.79297;96615.66;;;;
2021/02/27 03:21:58;;;;;;;15.45;8.5;;;;;;;4.39;69.79297;96615.66;;;;
2021/02/27 03:22:59;;;;;;;15.45;8.5;;;;;;;4.39;69.79297;96615.66;;;;
2021/02/27 03:23:59;;;;;;;15.45;8.5;;;;;;;4.39;69.79297;96615.66;;;;
2021/02/27 03:25:00;;;;;;;15.45;8.5;;;;;;;4.39;69.79297;96615.66;;;;
2021/02/27 03:26:03;;;;;;;15.45;8.5;;;;;;;4.39;69.79297;96615.66;;;;
2021/02/27 03:27:03;;;;;;;15.45;8.5;;;;;;;4.39;69.79297;96615.66;;;;
2021/02/27 03:28:04;;;;;;;15.45;8.5;;;;;;;4.39;69.79297;96615.66;;;;
2021/02/27 03:29:05;;;;;;;15.45;8.5;;;;;;;4.39;69.79297;96615.66;;;;
2021/02/27 03:30:06;;;;;;;15.45;8.5;;;;;;;4.39;69.79297;96615.66;;;;
2021/02/27 03:31:09;;;;;;;16.25;9.250001;;;;;;;4.31;70.14063;96625.42;;;;
2021/02/27 03:32:09;;;;;;;16.25;9.250001;;;;;;;4.31;70.14063;96625.42;;;;
2021/02/27 03:33:10;;;;;;;16.25;9.250001;;;;;;;4.31;70.14063;96625.42;;;;
2021/02/27 03:34:10;;;;;;;16.25;9.250001;;;;;;;4.31;70.14063;96625.42;;;;
2021/02/27 03:35:11;;;;;;;16.25;9.250001;;;;;;;4.31;70.14063;96625.42;;;;
2021/02/27 03:36:14;;;;;;;16.25;9.250001;;;;;;;4.31;70.14063;96625.42;;;;
2021/02/27 03:37:15;;;;;;;16.25;9.250001;;;;;;;4.31;70.14063;96625.42;;;;
2021/02/27 03:38:17;;;;;;;16.25;9.250001;;;;;;;4.31;70.14063;96625.42;;;;
2021/02/27 03:39:17;;;;;;;16.25;9.250001;;;;;;;4.31;70.14063;96625.42;;;;
2021/02/27 03:40:17;;;;;;;16.25;9.250001;;;;;;;4.31;70.14063;96625.42;;;;
2021/02/27 03:41:18;;;;;;;17.8;9.900002;;;;;;;4.24;70.85742;96629.22;;;;
2021/02/27 03:42:19;;;;;;;17.8;9.900002;;;;;;;4.24;70.85742;96629.22;;;;
2021/02/27 03:43:20;;;;;;;17.8;9.900002;;;;;;;4.24;70.85742;96629.22;;;;
2021/02/27 03:44:20;;;;;;;17.8;9.900002;;;;;;;4.24;70.85742;96629.22;;;;
2021/02/27 03:45:21;;;;;;;17.8;9.900002;;;;;;;4.24;70.85742;96629.22;;;;
2021/02/27 03:46:21;;;;;;;17.8;9.900002;;;;;;;4.24;70.85742;96629.22;;;;
2021/02/27 03:47:22;;;;;;;17.8;9.900002;;;;;;;4.24;70.85742;96629.22;;;;
2021/02/27 03:48:23;;;;;;;17.8;9.900002;;;;;;;4.24;70.85742;96629.22;;;;
2021/02/27 03:49:23;;;;;;;17.8;9.900002;;;;;;;4.24;70.85742;96629.22;;;;
2021/02/27 03:50:23;;;;;;;17.8;9.900002;;;;;;;4.24;70.85742;96629.22;;;;
2021/02/27 03:51:24;;;;;;;17.8;9.900002;;;;;;;4.24;70.85742;96629.22;;;;
2021/02/27 03:52:25;;;;;;;16.45;9.9;;;;;;;4.18;71.12109;96633.91;;;;
2021/02/27 03:53:25;;;;;;;16.45;9.9;;;;;;;4.18;71.12109;96633.91;;;;
2021/02/27 03:54:26;;;;;;;16.45;9.9;;;;;;;4.18;71.12109;96633.91;;;;
2021/02/27 03:55:26;;;;;;;16.45;9.9;;;;;;;4.18;71.12109;96633.91;;;;
2021/02/27 03:56:27;;;;;;;16.45;9.9;;;;;;;4.18;71.12109;96633.91;;;;
2021/02/27 03:57:27;;;;;;;16.45;9.9;;;;;;;4.18;71.12109;96633.91;;;;
2021/02/27 03:58:28;;;;;;;16.45;9.9;;;;;;;4.18;71.12109;96633.91;;;;
2021/02/27 03:59:28;;;;;;;16.45;9.9;;;;;;;4.18;71.12109;96633.91;;;;
2021/02/27 04:00:29;;;;;;;16.45;9.9;;;;;;;4.18;71.12109;96633.91;;;;
2021/02/27 04:01:29;;;;;;;16.45;9.9;;;;;;;4.18;71.12109;96633.91;;;;
2021/02/27 04:02:30;;;;;;;16.45;9.9;;;;;;;4.18;71.12109;96633.91;;;;
2021/02/27 04:03:30;;;;;;;17.35;9.05;;;;;;;4.17;71.05762;96636.22;;;;
2021/02/27 04:04:31;;;;;;;17.35;9.05;;;;;;;4.17;71.05762;96636.22;;;;
2021/02/27 04:05:31;;;;;;;17.35;9.05;;;;;;;4.17;71.05762;96636.22;;;;
2021/02/27 04:06:32;;;;;;;17.35;9.05;;;;;;;4.17;71.05762;96636.22;;;;
2021/02/27 04:07:32;;;;;;;17.35;9.05;;;;;;;4.17;71.05762;96636.22;;;;
2021/02/27 04:08:33;;;;;;;17.35;9.05;;;;;;;4.17;71.05762;96636.22;;;;
2021/02/27 04:09:33;;;;;;;17.35;9.05;;;;;;;4.17;71.05762;96636.22;;;;
2021/02/27 04:10:34;;;;;;;17.35;9.05;;;;;;;4.17;71.05762;96636.22;;;;
2021/02/27 04:11:34;;;;;;;17.35;9.05;;;;;;;4.17;71.05762;96636.22;;;;
2021/02/27 04:12:35;;;;;;;17.35;9.05;;;;;;;4.17;71.05762;96636.22;;;;
2021/02/27 04:13:36;;;;;;;14.8;7.25;;;;;;;4.14;71.14648;96651.33;;;;
2021/02/27 04:14:36;;;;;;;14.8;7.25;;;;;;;4.14;71.14648;96651.33;;;;
2021/02/27 04:15:37;;;;;;;14.8;7.25;;;;;;;4.14;71.14648;96651.33;;;;
2021/02/27 04:16:37;;;;;;;14.8;7.25;;;;;;;4.14;71.14648;96651.33;;;;
2021/02/27 04:17:38;;;;;;;14.8;7.25;;;;;;;4.14;71.14648;96651.33;;;;
2021/02/27 04:18:38;;;;;;;14.8;7.25;;;;;;;4.14;71.14648;96651.33;;;;
2021/02/27 04:19:39;;;;;;;14.8;7.25;;;;;;;4.14;71.14648;96651.33;;;;
2021/02/27 04:20:39;;;;;;;14.8;7.25;;;;;;;4.14;71.14648;96651.33;;;;
2021/02/27 04:21:40;;;;;;;14.8;7.25;;;;;;;4.14;71.14648;96651.33;;;;
2021/02/27 04:22:40;;;;;;;14.8;7.25;;;;;;;4.14;71.14648;96651.33;;;;
2021/02/27 04:23:40;;;;;;;14.8;7.25;;;;;;;4.14;71.14648;96651.33;;;;
2021/02/27 04:24:41;;;;;;;13.35;7.9;;;;;;;4.02;71.15918;96652.58;;;;
2021/02/27 04:25:42;;;;;;;13.35;7.9;;;;;;;4.02;71.15918;96652.58;;;;
2021/02/27 04:26:42;;;;;;;13.35;7.9;;;;;;;4.02;71.15918;96652.58;;;;
2021/02/27 04:27:43;;;;;;;13.35;7.9;;;;;;;4.02;71.15918;96652.58;;;;
2021/02/27 04:28:43;;;;;;;13.35;7.9;;;;;;;4.02;71.15918;96652.58;;;;
2021/02/27 04:29:44;;;;;;;13.35;7.9;;;;;;;4.02;71.15918;96652.58;;;;
2021/02/27 04:30:44;;;;;;;13.35;7.9;;;;;;;4.02;71.15918;96652.58;;;;
2021/02/27 04:31:45;;;;;;;13.35;7.9;;;;;;;4.02;71.15918;96652.58;;;;
2021/02/27 04:32:45;;;;;;;13.35;7.9;;;;;;;4.02;71.15918;96652.58;;;;
2021/02/27 04:33:46;;;;;;;13.35;7.9;;;;;;;4.02;71.15918;96652.58;;;;
2021/02/27 04:34:47;;;;;;;16.55;8.699999;;;;;;;3.91;71.23535;96662.22;;;;
2021/02/27 04:35:47;;;;;;;16.55;8.699999;;;;;;;3.91;71.23535;96662.22;;;;
2021/02/27 04:36:48;;;;;;;16.55;8.699999;;;;;;;3.91;71.23535;96662.22;;;;
2021/02/27 04:37:48;;;;;;;16.55;8.699999;;;;;;;3.91;71.23535;96662.22;;;;
2021/02/27 04:38:49;;;;;;;16.55;8.699999;;;;;;;3.91;71.23535;96662.22;;;;
2021/02/27 04:39:49;;;;;;;16.55;8.699999;;;;;;;3.91;71.23535;96662.22;;;;
2021/02/27 04:40:50;;;;;;;16.55;8.699999;;;;;;;3.91;71.23535;96662.22;;;;
2021/02/27 04:41:50;;;;;;;16.55;8.699999;;;;;;;3.91;71.23535;96662.22;;;;
2021/02/27 04:42:51;;;;;;;16.55;8.699999;;;;;;;3.91;71.23535;96662.22;;;;
2021/02/27 04:43:51;;;;;;;16.55;8.699999;;;;;;;3.91;71.23535;96662.22;;;;
2021/02/27 04:44:52;;;;;;;16.55;8.699999;;;;;;;3.91;71.23535;96662.22;;;;
2021/02/27 04:45:52;;;;;;;17;9.200001;;;;;;;3.74;71.41895;96682.25;;;;
2021/02/27 04:46:53;;;;;;;17;9.200001;;;;;;;3.74;71.41895;96682.25;;;;
2021/02/27 04:47:54;;;;;;;17;9.200001;;;;;;;3.74;71.41895;96682.25;;;;
2021/02/27 04:48:54;;;;;;;17;9.200001;;;;;;;3.74;71.41895;96682.25;;;;
2021/02/27 04:49:55;;;;;;;17;9.200001;;;;;;;3.74;71.41895;96682.25;;;;
2021/02/27 04:50:55;;;;;;;17;9.200001;;;;;;;3.74;71.41895;96682.25;;;;
2021/02/27 04:51:56;;;;;;;17;9.200001;;;;;;;3.74;71.41895;96682.25;;;;
2021/02/27 04:52:56;;;;;;;17;9.200001;;;;;;;3.74;71.41895;96682.25;;;;
2021/02/27 04:53:57;;;;;;;17;9.200001;;;;;;;3.74;71.41895;96682.25;;;;
2021/02/27 04:54:57;;;;;;;17;9.200001;;;;;;;3.74;71.41895;96682.25;;;;
2021/02/27 04:55:58;;;;;;;17;9.200001;;;;;;;3.74;71.41895;96682.25;;;;
2021/02/27 04:56:58;;;;;;;15.7;8.55;;;;;;;3.55;71.43848;96691.91;;;;
2021/02/27 04:57:59;;;;;;;15.7;8.55;;;;;;;3.55;71.43848;96691.91;;;;
2021/02/27 04:58:59;;;;;;;15.7;8.55;;;;;;;3.55;71.43848;96691.91;;;;
2021/02/27 05:00:00;;;;;;;15.7;8.55;;;;;;;3.55;71.43848;96691.91;;;;
2021/02/27 05:01:01;;;;;;;15.7;8.55;;;;;;;3.55;71.43848;96691.91;;;;
2021/02/27 05:02:01;;;;;;;15.7;8.55;;;;;;;3.55;71.43848;96691.91;;;;
2021/02/27 05:03:02;;;;;;;15.7;8.55;;;;;;;3.55;71.43848;96691.91;;;;
2021/02/27 05:04:11;;;;;;;15.7;8.55;;;;;;;3.55;71.43848;96691.91;;;;
2021/02/27 05:05:12;;;;;;;15.7;8.55;;;;;;;3.55;71.43848;96691.91;;;;
2021/02/27 05:06:13;;;;;;;15.7;8.55;;;;;;;3.55;71.43848;96691.91;;;;
2021/02/27 05:07:14;;;;;;;16.9;9.549998;;;;;;;3.53;71.81445;96698.33;;;;
2021/02/27 05:08:14;;;;;;;16.9;9.549998;;;;;;;3.53;71.81445;96698.33;;;;
2021/02/27 05:09:15;;;;;;;16.9;9.549998;;;;;;;3.53;71.81445;96698.33;;;;
2021/02/27 05:10:15;;;;;;;16.9;9.549998;;;;;;;3.53;71.81445;96698.33;;;;
2021/02/27 05:11:17;;;;;;;16.9;9.549998;;;;;;;3.53;71.81445;96698.33;;;;
2021/02/27 05:12:17;;;;;;;16.9;9.549998;;;;;;;3.53;71.81445;96698.33;;;;
2021/02/27 05:13:18;;;;;;;16.9;9.549998;;;;;;;3.53;71.81445;96698.33;;;;
2021/02/27 05:14:20;;;;;;;16.9;9.549998;;;;;;;3.53;71.81445;96698.33;;;;
2021/02/27 05:15:20;;;;;;;16.9;9.549998;;;;;;;3.53;71.81445;96698.33;;;;
2021/02/27 05:16:21;;;;;;;16.9;9.549998;;;;;;;3.53;71.81445;96698.33;;;;
2021/02/27 05:17:21;;;;;;;19.25;10.95;;;;;;;3.51;71.64258;96708.32;;;;
2021/02/27 05:18:22;;;;;;;19.25;10.95;;;;;;;3.51;71.64258;96708.32;;;;
2021/02/27 05:19:23;;;;;;;19.25;10.95;;;;;;;3.51;71.64258;96708.32;;;;
2021/02/27 05:20:23;;;;;;;19.25;10.95;;;;;;;3.51;71.64258;96708.32;;;;
2021/02/27 05:21:23;;;;;;;19.25;10.95;;;;;;;3.51;71.64258;96708.32;;;;
2021/02/27 05:22:24;;;;;;;19.25;10.95;;;;;;;3.51;71.64258;96708.32;;;;
2021/02/27 05:23:25;;;;;;;19.25;10.95;;;;;;;3.51;71.64258;96708.32;;;;
2021/02/27 05:24:26;;;;;;;19.25;10.95;;;;;;;3.51;71.64258;96708.32;;;;
2021/02/27 05:25:27;;;;;;;19.25;10.95;;;;;;;3.51;71.64258;96708.32;;;;
2021/02/27 05:26:28;;;;;;;19.25;10.95;;;;;;;3.51;71.64258;96708.32;;;;
2021/02/27 05:27:28;;;;;;;19.25;10.95;;;;;;;3.51;71.64258;96708.32;;;;
2021/02/27 05:28:29;;;;;;;22.05;10.95;;;;;;;3.42;71.64844;96711.55;;;;
2021/02/27 05:29:29;;;;;;;22.05;10.95;;;;;;;3.42;71.64844;96711.55;;;;
2021/02/27 05:30:30;;;;;;;22.05;10.95;;;;;;;3.42;71.64844;96711.55;;;;
2021/02/27 05:31:30;;;;;;;22.05;10.95;;;;;;;3.42;71.64844;96711.55;;;;
2021/02/27 05:32:31;;;;;;;22.05;10.95;;;;;;;3.42;71.64844;96711.55;;;;
2021/02/27 05:33:31;;;;;;;22.05;10.95;;;;;;;3.42;71.64844;96711.55;;;;
2021/02/27 05:34:33;;;;;;;22.05;10.95;;;;;;;3.42;71.64844;96711.55;;;;
2021/02/27 05:35:33;;;;;;;22.05;10.95;;;;;;;3.42;71.64844;96711.55;;;;
2021/02/27 05:36:34;;;;;;;22.05;10.95;;;;;;;3.42;71.64844;96711.55;;;;
2021/02/27 05:37:34;;;;;;;22.05;10.95;;;;;;;3.42;71.64844;96711.55;;;;
2021/02/27 05:38:35;;;;;;;22.05;10.95;;;;;;;3.42;71.64844;96711.55;;;;
2021/02/27 05:39:35;;;;;;;18.35;11.4;;;;;;;3.38;71.6543;96715.42;;;;
2021/02/27 05:40:36;;;;;;;18.35;11.4;;;;;;;3.38;71.6543;96715.42;;;;
2021/02/27 05:41:36;;;;;;;18.35;11.4;;;;;;;3.38;71.6543;96715.42;;;;